Historyczne dane pomiarowe

Dodano dane terminowe – wersja testowa.

Dane z okresu 1951-2019

Wersja bazy: 1.34 [2019-03-16, lista zmian], aktualizacja planowana na 2019-04-15

Dane meteo z obszaru Polski uzyskane na podstawie danych udostępnionych przez Instytut Meteorologii i Gospodarki Wodnej – Państwowy Instytut Badawczy.

 

Wybierz Datę:    

       

TemperaturaWilgotnośćWiatrCiśnienieOpadyŚniegCzas trwania zjawisk
 Stacja t tx tn tng RH VA  wxwx mslp ppp RRR   cm mm wxwxwxwxwxwxwx
1983-08-14 14.5 19.8 9.8 7.8 85.8- 4.3 4.3---- 0.0------------
1983-08-13 15.8 21.0 12.4 12.5 87.8- 4.3 4.0---- 0.6------------
1983-08-12 19.7 26.5 11.8 10.9 76.8- 3.3 1.0---- 13.6------------
1983-08-11 20.6 28.5 11.7 10.1 77.5- 1.0 0.7---- 0.0------------
1983-08-10 19.8 27.4 12.3 11.4 80.0- 1.0 0.0---- 0.0------------
1983-08-09 19.6 27.0 11.8 11.1 89.5- 2.0 0.0---- 0.0------------
1983-08-08 18.8 25.4 12.8 10.9 92.5- 6.3 0.0---- 0.3------------
1983-08-07 15.0 20.2 10.3 8.9 98.8- 7.7 0.0---- 16.5------------
1983-08-06 16.5 21.4 11.3 10.1 76.8- 4.3 0.7---- 0.0------------
1983-08-05 14.1 19.5 10.0 9.3 89.0- 6.7 2.0---- 0.0------------
1983-08-04 11.2 11.8 10.3 9.9 97.5- 8.0 3.3---- 18.3------------
1983-08-03 15.4 23.4 11.4 10.9 92.5- 8.0 4.7---- 34.7------------
1983-08-02 22.6 31.2 18.2 15.8 77.3- 6.7 3.3---- 0.0------------
1983-08-01 25.2 35.5 13.6 11.9 59.0- 4.3 4.0---- 0.0------------
1983-07-31 19.8 29.6 7.3 5.0 62.3- 1.0 0.7---- 0.0------------
1983-07-30 19.8 24.8 15.8 14.9 76.3- 3.3 2.7---- 0.0------------
1983-07-29 19.3 25.0 15.3 12.4 75.0- 3.3 2.0---- 0.5------------
1983-07-28 24.4 31.2 18.8 15.8 67.5- 1.0 2.0---- 0.0------------
1983-07-27 25.7 36.4 14.8 11.5 62.8- 2.7 0.0---- 0.0------------
1983-07-26 21.7 31.0 9.8 6.9 63.5- 0.3 1.0---- 0.0------------
1983-07-25 18.9 27.2 8.8 6.9 72.0- 0.0 0.7---- 0.0------------
1983-07-24 19.2 27.4 9.8 7.9 73.0- 4.7 0.7---- 0.0------------
1983-07-23 20.0 27.6 12.0 9.4 69.8- 0.7 1.3---- 0.0------------
1983-07-22 15.1 21.5 11.4 10.1 87.8- 7.3 2.3---- 0.0------------
1983-07-21 14.4 19.6 9.0 7.9 73.0- 4.0 4.3---- 0.0------------
1983-07-20 15.5 21.0 11.3 11.0 81.5- 6.0 2.7---- 2.9------------
1983-07-19 21.1 29.6 17.3 16.3 83.8- 6.7 2.0---- 9.0------------
1983-07-18 26.0 35.6 17.2 14.4 67.3- 4.3 1.3---- 0.8------------
1983-07-17 21.5 29.9 12.4 11.3 76.8- 1.3 2.0---- 0.0------------
1983-07-16 19.1 29.4 16.3 12.9 81.5- 7.3 3.3---- 6.4------------
1983-07-15 20.8 27.6 13.8 10.7 67.5- 2.7 2.0---- 0.0------------
1983-07-14 20.1 24.8 15.2 14.1 74.5- 7.0 2.0---- 0.0------------
1983-07-13 20.7 25.8 9.4 9.4 76.5- 4.7 3.3---- 0.0------------
1983-07-12 24.0 31.0 17.0 14.9 62.3- 4.3 2.7---- 2.8------------
1983-07-11 24.2 31.6 13.7 11.3 52.0- 0.7 3.0---- 0.0------------
1983-07-10 23.7 32.2 12.0 10.1 57.0- 0.3 1.0---- 0.0------------
1983-07-09 21.4 30.4 9.2 6.9 57.8- 0.0 0.7---- 0.0------------
1983-07-08 22.3 29.5 10.8 7.3 52.3- 0.0 1.0---- 0.0------------
1983-07-07 24.8 32.0 15.3 12.8 59.3- 2.0 2.3---- 0.0------------
1983-07-06 22.8 31.2 11.7 8.9 62.0- 1.0 2.0---- 0.0------------
1983-07-05 20.2 27.8 9.8 7.9 64.5- 1.3 1.3---- 0.0------------
1983-07-04 20.6 28.0 13.2 10.4 69.3- 1.7 1.7---- 0.0------------
1983-07-03 18.6 27.0 8.8 6.9 69.8- 1.0 0.0---- 0.0------------
1983-07-02 17.7 22.5 11.3 10.7 76.0- 3.7 2.0---- 0.0------------
1983-07-01 19.4 26.0 12.3 10.4 75.0- 6.0 2.0---- 2.0------------
1983-06-30 19.9 25.4 11.8 9.9 64.0- 2.3 2.7---- 0.0------------
1983-06-29 15.5 21.0 8.3 6.9 70.0- 3.3 3.0---- 0.0------------
1983-06-28 15.7 20.6 13.0 12.5 67.5- 4.7 4.3---- 0.0------------
1983-06-27 19.6 24.0 15.6 13.3 81.5- 6.0 1.7---- 16.7------------
1983-06-26 20.6 27.0 12.0 9.9 66.8- 3.0 2.0---- 0.0------------
1983-06-25 23.4 30.2 14.8 10.9 53.5- 3.3 1.3---- 0.0------------
1983-06-24 19.6 30.0 5.2 2.5 59.8- 0.3 0.3---- 0.0------------
1983-06-23 17.2 25.0 5.3 1.7 53.5- 0.0 2.7---- 0.0------------
1983-06-22 17.5 25.0 8.8 5.7 52.5- 0.7 2.7---- 0.0------------
1983-06-21 19.6 28.4 8.6 5.7 63.8- 0.7 2.0---- 0.0------------
1983-06-20 17.9 26.8 8.8 7.1 58.0- 0.7 2.3---- 0.0------------
1983-06-19 16.7 23.8 11.8 11.9 66.5- 7.0 2.7---- 0.0------------
1983-06-18 13.5 17.5 9.6 6.9 84.3- 7.7 2.7---- 0.0------------
1983-06-17 12.3 15.0 9.6 8.9 72.8- 5.0 2.0---- 0.2------------
1983-06-16 12.8 17.8 9.2 9.1 79.3- 4.7 4.0---- 0.0------------
325.0 ms

 

Źródłem pochodzenia danych jest Instytut Meteorologii i Gospodarki Wodnej – Państwowy Instytut Badawczy. Dane Instytutu Meteorologii i Gospodarki Wodnej – Państwowego Instytutu Badawczego zostały przetworzone.

Dane źródłowe można odnaleźć na stronie https://dane.imgw.pl